Time;durP1;ratioP1;P1;durP2;ratioP2;P2;SDS_P1;SDS_P2;PMS_P1;PMS_P2;Temp;Humidity;BMP_temperature;BMP_pressure;BME280_temperature;BME280_humidity;BME280_pressure;Samples;Min_cycle;Max_cycle;Signal;HPM_P1;HPM_P2
2021/04/04 00:00:07;;;;;;;12.40;4.40;;;;;;;0.44;100.00;96606.56;1015882;29;20020;-60
2021/04/04 00:00:39;;;;;;;7.40;4.10;;;;;;;0.45;100.00;96605.63;1023751;28;20086;-60
2021/04/04 00:01:10;;;;;;;9.93;3.60;;;;;;;0.44;100.00;96603.13;1023734;28;20110;-62
2021/04/04 00:01:40;;;;;;;9.35;4.22;;;;;;;0.43;100.00;96604.88;1023548;29;20025;-61
2021/04/04 00:02:11;;;;;;;17.73;5.38;;;;;;;0.42;100.00;96613.69;1015786;29;20394;-60
2021/04/04 00:02:42;;;;;;;8.32;3.97;;;;;;;0.32;100.00;96589.91;1019663;29;20019;-60
2021/04/04 00:03:13;;;;;;;9.20;4.13;;;;;;;0.41;100.00;96603.31;1019718;29;20016;-60
2021/04/04 00:03:43;;;;;;;9.43;4.10;;;;;;;0.41;100.00;96596.31;1019594;29;20026;-61
2021/04/04 00:04:14;;;;;;;10.85;3.90;;;;;;;0.40;100.00;96594.66;1016256;29;20032;-61
2021/04/04 00:04:45;;;;;;;9.15;4.00;;;;;;;0.37;100.00;96600.06;1015865;29;20431;-60
2021/04/04 00:05:16;;;;;;;11.93;3.92;;;;;;;0.37;100.00;96595.66;1019776;29;20019;-61
2021/04/04 00:05:47;;;;;;;8.85;4.35;;;;;;;0.39;100.00;96597.38;1027552;28;20133;-60
2021/04/04 00:06:17;;;;;;;8.32;4.15;;;;;;;0.37;100.00;96600.06;1027675;28;20026;-61
2021/04/04 00:06:48;;;;;;;9.93;4.35;;;;;;;0.38;100.00;96593.88;1027763;28;20655;-60
2021/04/04 00:07:19;;;;;;;10.38;4.05;;;;;;;0.35;100.00;96596.72;1019694;28;20023;-60
2021/04/04 00:07:50;;;;;;;8.32;4.07;;;;;;;0.35;100.00;96599.34;1019677;29;20051;-60
2021/04/04 00:08:20;;;;;;;7.57;4.03;;;;;;;0.36;100.00;96596.59;1019809;28;20020;-60
2021/04/04 00:08:51;;;;;;;8.48;3.92;;;;;;;0.29;100.00;96597.09;1015823;29;20462;-60
2021/04/04 00:09:22;;;;;;;9.02;4.85;;;;;;;0.26;100.00;96587.69;1023676;29;20051;-60
2021/04/04 00:09:53;;;;;;;7.85;4.00;;;;;;;0.31;100.00;96595.22;1031584;28;20070;-60
2021/04/04 00:10:23;;;;;;;10.20;3.70;;;;;;;0.31;100.00;96597.81;1031763;28;20492;-61
2021/04/04 00:10:54;;;;;;;7.95;4.25;;;;;;;0.32;100.00;96596.91;1019651;29;20110;-60
2021/04/04 00:11:25;;;;;;;8.90;3.67;;;;;;;0.31;100.00;96590.81;1019684;29;20020;-63
2021/04/04 00:11:56;;;;;;;8.93;4.78;;;;;;;0.32;100.00;96591.69;1019616;29;20019;-61
2021/04/04 00:12:26;;;;;;;9.07;4.18;;;;;;;0.32;100.00;96596.91;1015882;29;20451;-60
2021/04/04 00:12:57;;;;;;;10.40;4.15;;;;;;;0.31;100.00;96587.38;1015734;29;20027;-60
2021/04/04 00:13:28;;;;;;;9.55;3.83;;;;;;;0.27;100.00;96585.91;1015766;29;20024;-59
2021/04/04 00:14:00;;;;;;;8.60;4.30;;;;;;;0.30;100.00;96590.94;1015649;29;20024;-59
2021/04/04 00:14:31;;;;;;;12.77;4.35;;;;;;;0.29;100.00;96591.88;1015806;29;20516;-61
2021/04/04 00:15:04;;;;;;;7.75;4.68;;;;;;;0.27;100.00;96601.56;1015924;29;20031;-57
2021/04/04 00:15:34;;;;;;;9.63;4.13;;;;;;;0.24;100.00;96589.53;1019696;29;20145;-59
2021/04/04 00:16:05;;;;;;;8.73;4.38;;;;;;;0.24;100.00;96597.38;1011823;29;20155;-60
2021/04/04 00:16:36;;;;;;;10.93;4.00;;;;;;;0.23;100.00;96589.63;1015803;29;20031;-60
2021/04/04 00:17:07;;;;;;;14.80;4.53;;;;;;;0.22;100.00;96594.03;1027806;28;20505;-60
2021/04/04 00:17:38;;;;;;;10.93;3.88;;;;;;;0.22;100.00;96595.81;1019722;29;20099;-60
2021/04/04 00:18:09;;;;;;;8.75;3.97;;;;;;;0.22;100.00;96601.03;1019663;29;20034;-61
2021/04/04 00:18:46;;;;;;;10.32;4.40;;;;;;;0.21;100.00;96591.50;1023687;29;20019;-60
2021/04/04 00:19:17;;;;;;;10.43;4.65;;;;;;;0.20;100.00;96588.06;1023717;28;20054;-60
2021/04/04 00:19:48;;;;;;;8.32;3.97;;;;;;;0.20;100.00;96597.69;1023658;29;20027;-61
2021/04/04 00:20:19;;;;;;;8.90;4.53;;;;;;;0.18;100.00;96597.78;1015811;29;20478;-60
2021/04/04 00:20:50;;;;;;;7.70;4.40;;;;;;;0.18;100.00;96595.16;1019760;28;20031;-61
2021/04/04 00:21:22;;;;;;;7.50;4.20;;;;;;;0.16;100.00;96597.03;1027659;28;20121;-60
2021/04/04 00:21:53;;;;;;;9.77;4.18;;;;;;;0.15;100.00;96590.94;1023706;28;20042;-61
2021/04/04 00:22:24;;;;;;;10.15;5.28;;;;;;;0.15;100.00;96590.13;1019641;29;20115;-61
2021/04/04 00:22:55;;;;;;;10.13;4.75;;;;;;;0.15;100.00;96593.56;1019770;29;20032;-60
2021/04/04 00:23:26;;;;;;;7.90;4.13;;;;;;;0.15;100.00;96598.78;1019609;29;20141;-60
2021/04/04 00:23:56;;;;;;;10.52;4.70;;;;;;;0.15;100.00;96596.16;1023535;28;20026;-60
2021/04/04 00:24:27;;;;;;;11.52;4.40;;;;;;;0.15;100.00;96590.94;1023675;29;20042;-61
2021/04/04 00:24:58;;;;;;;9.10;4.38;;;;;;;0.14;100.00;96596.25;1019699;29;20389;-60
2021/04/04 00:25:28;;;;;;;7.95;4.00;;;;;;;0.12;100.00;96591.16;1023815;28;20078;-60
2021/04/04 00:25:59;;;;;;;11.35;4.32;;;;;;;0.11;100.00;96588.66;1023678;28;20421;-60
2021/04/04 00:26:30;;;;;;;11.57;4.50;;;;;;;0.11;100.00;96583.41;1023579;28;20019;-60
2021/04/04 00:27:01;;;;;;;10.55;4.13;;;;;;;0.10;100.00;96589.56;1023747;29;20111;-60
2021/04/04 00:27:31;;;;;;;9.75;3.90;;;;;;;0.08;100.00;96592.25;1031311;28;20093;-60
2021/04/04 00:28:03;;;;;;;8.18;4.13;;;;;;;0.07;100.00;96593.22;1019450;29;20024;-60
2021/04/04 00:28:34;;;;;;;8.77;4.50;;;;;;;0.04;100.00;96582.97;1027547;28;20436;-61
2021/04/04 00:29:06;;;;;;;8.18;4.30;;;;;;;0.07;100.00;96588.00;1023838;28;20011;-60
2021/04/04 00:29:36;;;;;;;8.43;4.40;;;;;;;0.07;100.00;96595.84;1015778;29;20008;-60
2021/04/04 00:30:12;;;;;;;17.30;5.00;;;;;;;0.06;100.00;96588.91;1015865;29;20096;-60
2021/04/04 00:30:43;;;;;;;7.53;4.43;;;;;;;0.00;100.00;96581.47;1023615;29;20058;-60
2021/04/04 00:31:13;;;;;;;10.25;4.68;;;;;;;0.02;100.00;96592.66;1023672;29;20078;-61
2021/04/04 00:31:44;;;;;;;9.55;4.07;;;;;;;0.00;100.00;96594.53;1031717;28;20018;-59
2021/04/04 00:32:15;;;;;;;9.40;4.28;;;;;;;-0.06;100.00;96576.63;1028174;28;20019;-61
2021/04/04 00:32:47;;;;;;;11.00;4.05;;;;;;;0.03;100.00;96589.09;1021654;29;20034;-61
2021/04/04 00:33:18;;;;;;;7.88;4.00;;;;;;;0.00;100.00;96586.72;1017902;29;20486;-61
2021/04/04 00:33:49;;;;;;;9.30;4.22;;;;;;;0.05;100.00;96589.00;1029947;28;20011;-60
2021/04/04 00:34:21;;;;;;;13.90;4.80;;;;;;;0.05;100.00;96589.84;1030279;28;20018;-60
2021/04/04 00:34:52;;;;;;;8.25;3.88;;;;;;;0.05;100.00;96587.22;1030005;28;20520;-61
2021/04/04 00:35:23;;;;;;;7.97;4.15;;;;;;;0.04;100.00;96590.78;1018441;29;20025;-60
2021/04/04 00:35:54;;;;;;;10.57;3.80;;;;;;;0.04;100.00;96588.19;1026970;29;20023;-61
2021/04/04 00:36:25;;;;;;;9.57;4.35;;;;;;;0.06;100.00;96596.75;1019028;29;20091;-60
2021/04/04 00:36:56;;;;;;;7.95;4.07;;;;;;;0.06;100.00;96588.91;1026695;28;20004;-61
2021/04/04 00:37:27;;;;;;;11.32;4.43;;;;;;;0.06;100.00;96585.47;1038739;28;20010;-61
2021/04/04 00:37:58;;;;;;;8.07;3.75;;;;;;;0.05;100.00;96587.22;1026970;28;20090;-61
2021/04/04 00:38:29;;;;;;;7.95;3.78;;;;;;;0.07;100.00;96592.34;1019071;29;20016;-60
2021/04/04 00:38:59;;;;;;;11.13;3.95;;;;;;;0.02;100.00;96587.44;1020300;29;20031;-62
2021/04/04 00:39:30;;;;;;;9.55;4.45;;;;;;;0.03;100.00;96585.66;1019681;29;20022;-60
2021/04/04 00:40:01;;;;;;;10.57;3.92;;;;;;;0.01;100.00;96585.75;1012084;29;20136;-60
2021/04/04 00:40:33;;;;;;;10.65;3.97;;;;;;;0.01;100.00;96588.38;1019702;29;20023;-61
2021/04/04 00:41:04;;;;;;;9.82;4.15;;;;;;;0.01;100.00;96585.75;1015695;29;20009;-60
2021/04/04 00:41:35;;;;;;;10.40;4.22;;;;;;;0.01;100.00;96587.53;1015784;29;20378;-62
2021/04/04 00:42:06;;;;;;;13.23;3.83;;;;;;;-0.01;100.00;96580.63;1019699;29;20019;-60
2021/04/04 00:42:36;;;;;;;10.07;4.32;;;;;;;-0.01;100.00;96585.00;1023435;28;20015;-60
2021/04/04 00:43:07;;;;;;;7.68;3.90;;;;;;;-0.01;100.00;96590.22;1015727;29;20016;-60
2021/04/04 00:43:38;;;;;;;10.13;3.85;;;;;;;-0.02;100.00;96584.19;1019360;28;20015;-61
2021/04/04 00:44:09;;;;;;;11.60;4.35;;;;;;;-0.02;100.00;96588.53;1023666;29;20030;-61
2021/04/04 00:44:40;;;;;;;6.50;3.92;;;;;;;-0.03;100.00;96579.06;1019655;28;20095;-61
2021/04/04 00:45:14;;;;;;;9.68;4.32;;;;;;;-0.11;100.00;96574.28;1027523;28;20574;-60
2021/04/04 00:45:45;;;;;;;9.50;3.80;;;;;;;-0.05;100.00;96575.72;1023727;29;20019;-60
2021/04/04 00:46:16;;;;;;;7.30;3.80;;;;;;;-0.40;100.00;96521.28;1019697;29;20111;-58
2021/04/04 00:46:46;;;;;;;8.93;4.20;;;;;;;-0.06;100.00;96579.25;1023609;29;20118;-60
2021/04/04 00:47:17;;;;;;;6.78;3.83;;;;;;;-0.06;100.00;96581.84;1015651;29;20017;-60
2021/04/04 00:47:48;;;;;;;12.02;5.00;;;;;;;-0.07;100.00;96582.78;1023656;29;20022;-60
2021/04/04 00:48:19;;;;;;;8.05;3.88;;;;;;;-0.09;100.00;96582.84;1027590;28;20015;-60
2021/04/04 00:48:50;;;;;;;12.63;4.45;;;;;;;-0.08;100.00;96586.34;1019543;29;20016;-60
2021/04/04 00:49:20;;;;;;;13.85;4.38;;;;;;;-0.08;100.00;96578.50;1023642;28;20038;-60
2021/04/04 00:49:51;;;;;;;9.38;4.38;;;;;;;-0.08;100.00;96589.78;1031614;28;20508;-61
2021/04/04 00:50:24;;;;;;;14.32;3.83;;;;;;;-0.11;100.00;96583.91;1015749;29;20115;-61
2021/04/04 00:50:55;;;;;;;8.77;4.50;;;;;;;-0.12;100.00;96583.06;1023583;28;20050;-61
2021/04/04 00:51:26;;;;;;;10.27;4.30;;;;;;;-0.11;100.00;96584.72;1027457;28;20094;-60
2021/04/04 00:51:56;;;;;;;8.43;4.25;;;;;;;-0.11;100.00;96584.72;1015740;29;20020;-60
2021/04/04 00:52:27;;;;;;;12.68;4.40;;;;;;;-0.12;100.00;96584.81;1015833;29;20024;-62
2021/04/04 00:52:58;;;;;;;6.28;3.92;;;;;;;-0.12;100.00;96588.28;1027705;28;20088;-60
2021/04/04 00:53:29;;;;;;;8.63;3.80;;;;;;;-0.13;100.00;96580.56;1015562;29;20020;-60
2021/04/04 00:53:59;;;;;;;9.35;4.22;;;;;;;-0.14;100.00;96584.09;1027503;28;20034;-60
2021/04/04 00:54:30;;;;;;;9.07;4.57;;;;;;;-0.14;100.00;96584.09;1023533;28;20123;-61
2021/04/04 00:55:01;;;;;;;9.38;4.20;;;;;;;-0.23;100.00;96570.69;1027555;28;20053;-59
2021/04/04 00:55:32;;;;;;;7.57;4.32;;;;;;;-0.14;100.00;96590.16;1019487;29;20024;-60
2021/04/04 00:56:03;;;;;;;13.95;4.63;;;;;;;-0.16;100.00;96583.34;1015732;29;20512;-60
2021/04/04 00:56:34;;;;;;;9.73;4.53;;;;;;;-0.19;100.00;96584.38;1015701;29;20060;-60
2021/04/04 00:57:05;;;;;;;7.05;3.58;;;;;;;-0.17;100.00;96584.25;1019645;29;20124;-60
2021/04/04 00:57:36;;;;;;;10.40;4.65;;;;;;;-0.18;100.00;96587.81;1031602;28;20335;-60
2021/04/04 00:58:07;;;;;;;8.68;3.97;;;;;;;-0.17;100.00;96586.88;1027590;28;20027;-60
2021/04/04 00:58:38;;;;;;;9.15;4.20;;;;;;;-0.19;100.00;96581.78;1019778;29;20034;-61
2021/04/04 00:59:09;;;;;;;11.85;4.60;;;;;;;-0.18;100.00;96582.59;1019555;29;20055;-60
2021/04/04 00:59:40;;;;;;;9.77;4.22;;;;;;;-0.21;100.00;96584.47;1023495;28;20023;-61
2021/04/04 01:00:12;;;;;;;13.50;4.25;;;;;;;-0.22;100.00;96582.78;1019633;29;20051;-60
2021/04/04 01:00:44;;;;;;;11.52;5.00;;;;;;;-0.23;100.00;96585.47;1015706;29;20028;-61
2021/04/04 01:01:14;;;;;;;9.38;4.07;;;;;;;-0.23;100.00;96588.97;1015817;29;20580;-60
2021/04/04 01:01:45;;;;;;;9.13;4.13;;;;;;;-0.23;100.00;96585.47;1023442;29;20112;-62
2021/04/04 01:02:16;;;;;;;6.65;4.18;;;;;;;-0.28;100.00;96572.75;1023578;28;20558;-60
2021/04/04 01:02:49;;;;;;;10.10;3.75;;;;;;;-0.31;100.00;96572.09;1019485;29;20027;-61
2021/04/04 01:03:20;;;;;;;7.88;4.30;;;;;;;-0.25;100.00;96587.34;1023453;28;20122;-59
2021/04/04 01:03:51;;;;;;;11.40;4.60;;;;;;;-0.24;100.00;96583.81;1027206;28;20015;-60
2021/04/04 01:04:21;;;;;;;11.85;4.00;;;;;;;-0.26;100.00;96583.91;1019617;29;20023;-60
2021/04/04 01:04:54;;;;;;;8.50;4.05;;;;;;;-0.24;100.00;96591.66;1015704;29;20516;-60
2021/04/04 01:05:30;;;;;;;8.55;4.53;;;;;;;-0.26;100.00;96586.53;1019739;29;20034;-60
2021/04/04 01:06:04;;;;;;;11.30;4.05;;;;;;;-0.28;100.00;96587.53;1020621;29;20023;-60
2021/04/04 01:06:34;;;;;;;9.05;3.90;;;;;;;-0.32;100.00;96589.50;1025153;28;20019;-60
2021/04/04 01:07:05;;;;;;;13.10;5.05;;;;;;;-0.43;100.00;96573.66;1023582;29;20023;-61
2021/04/04 01:07:36;;;;;;;8.73;4.70;;;;;;;-0.36;100.00;96592.41;1015770;29;20028;-61
2021/04/04 01:08:08;;;;;;;11.25;4.45;;;;;;;-0.36;100.00;96595.84;1023439;29;20077;-60
2021/04/04 01:08:39;;;;;;;7.50;3.90;;;;;;;-0.38;100.00;96597.72;1023539;29;20114;-61
2021/04/04 01:09:10;;;;;;;12.85;4.53;;;;;;;-0.36;100.00;96590.63;1023582;29;20089;-60
2021/04/04 01:09:41;;;;;;;8.57;5.20;;;;;;;-0.35;100.00;96597.50;1019659;29;20095;-60
2021/04/04 01:10:12;;;;;;;9.52;4.30;;;;;;;-0.34;100.00;96587.91;1027420;28;20089;-60
2021/04/04 01:10:44;;;;;;;10.70;5.18;;;;;;;-0.35;100.00;96596.66;1027509;28;20058;-59
2021/04/04 01:11:15;;;;;;;12.25;4.60;;;;;;;-0.34;100.00;96590.53;1019619;29;20031;-60
2021/04/04 01:11:53;;;;;;;7.53;4.15;;;;;;;-0.33;100.00;96592.19;1023597;28;20528;-60
2021/04/04 01:12:43;;;;;;;9.77;4.38;;;;;;;-0.38;100.00;96593.31;1019581;29;20035;-60
2021/04/04 01:13:15;;;;;;;8.30;4.20;;;;;;;-0.39;100.00;96590.81;1019649;29;20019;-60
2021/04/04 01:13:56;;;;;;;11.18;4.57;;;;;;;-0.40;100.00;96587.34;1031388;28;20018;-60
2021/04/04 01:14:30;;;;;;;10.25;4.72;;;;;;;-0.41;100.00;96588.28;1027498;28;20023;-60
2021/04/04 01:15:04;;;;;;;9.13;4.32;;;;;;;-0.40;100.00;96591.72;1019609;29;20015;-61
2021/04/04 01:15:36;;;;;;;10.18;4.38;;;;;;;-0.40;100.00;96586.50;1015617;29;20020;-59
2021/04/04 01:16:10;;;;;;;9.15;4.35;;;;;;;-0.41;100.00;96592.66;1023569;28;20293;-60
2021/04/04 01:16:42;;;;;;;10.77;4.18;;;;;;;-0.40;100.00;96591.72;1027468;28;20022;-60
2021/04/04 01:17:13;;;;;;;11.95;4.30;;;;;;;-0.39;100.00;96588.19;1023587;28;20449;-60
2021/04/04 01:17:45;;;;;;;13.38;5.20;;;;;;;-0.38;100.00;96589.88;1023603;28;20031;-60
2021/04/04 01:18:33;;;;;;;9.90;4.53;;;;;;;-0.38;100.00;96590.72;1027643;28;20030;-60
2021/04/04 01:19:24;;;;;;;13.60;4.40;;;;;;;-0.42;100.00;96589.22;1019620;29;20027;-60
2021/04/04 01:20:06;;;;;;;13.25;4.50;;;;;;;-0.42;100.00;96594.44;1027559;28;20109;-59
2021/04/04 01:20:41;;;;;;;14.55;4.60;;;;;;;-0.42;100.00;96589.22;1023878;28;20019;-60
2021/04/04 01:21:14;;;;;;;10.18;4.05;;;;;;;-0.43;100.00;96584.94;1019628;29;20082;-61
2021/04/04 01:21:49;;;;;;;8.52;4.40;;;;;;;-0.43;100.00;96589.31;1014316;29;20020;-61
2021/04/04 01:22:40;;;;;;;10.68;4.20;;;;;;;-0.43;100.00;96589.31;1017269;29;20433;-60
2021/04/04 01:23:17;;;;;;;10.45;4.93;;;;;;;-0.45;100.00;96586.78;1015669;29;20028;-60
2021/04/04 01:24:01;;;;;;;9.55;4.75;;;;;;;-0.43;100.00;96590.16;1015575;29;20071;-60
2021/04/04 01:24:38;;;;;;;9.82;4.60;;;;;;;-0.42;100.00;96590.97;1019628;29;20034;-60
2021/04/04 01:25:19;;;;;;;8.38;3.90;;;;;;;-0.43;100.00;96584.09;1019622;29;20030;-59
2021/04/04 01:26:01;;;;;;;10.50;4.28;;;;;;;-0.42;100.00;96588.38;1027584;28;20019;-60
2021/04/04 01:26:39;;;;;;;9.55;4.32;;;;;;;-0.44;100.00;96585.03;1027483;28;20082;-62
2021/04/04 01:27:24;;;;;;;13.13;5.00;;;;;;;-0.46;100.00;96584.28;1031666;28;20105;-62
2021/04/04 01:28:03;;;;;;;9.60;4.30;;;;;;;-0.48;100.00;96576.53;1023573;29;20132;-59
2021/04/04 01:28:37;;;;;;;9.77;4.50;;;;;;;-0.48;100.00;96581.75;1019606;29;20367;-61
2021/04/04 01:29:09;;;;;;;10.00;4.47;;;;;;;-0.46;100.00;96589.50;1019459;29;20502;-60
2021/04/04 01:29:40;;;;;;;9.50;5.07;;;;;;;-0.47;100.00;96588.66;1019562;29;20159;-60
2021/04/04 01:30:12;;;;;;;10.60;4.80;;;;;;;-0.48;100.00;96586.97;1015637;29;20076;-60
2021/04/04 01:30:44;;;;;;;13.25;4.55;;;;;;;-0.47;100.00;96588.66;1019614;29;20039;-60
2021/04/04 01:31:15;;;;;;;15.88;5.88;;;;;;;-0.49;100.00;96585.28;1023409;28;20110;-58
2021/04/04 01:31:47;;;;;;;11.32;4.80;;;;;;;-0.49;100.00;96585.28;1027579;28;20019;-60
2021/04/04 01:32:17;;;;;;;10.57;4.35;;;;;;;-0.47;100.00;96580.84;1027504;28;20054;-60
2021/04/04 01:32:49;;;;;;;10.32;5.03;;;;;;;-0.46;100.00;96582.50;1019631;29;20051;-61
2021/04/04 01:33:20;;;;;;;10.50;4.57;;;;;;;-0.45;100.00;96586.78;1019371;29;20019;-60
2021/04/04 01:33:52;;;;;;;14.52;4.90;;;;;;;-0.45;100.00;96581.56;1019437;29;20035;-61
2021/04/04 01:34:26;;;;;;;12.63;4.70;;;;;;;-0.45;100.00;96580.75;1027518;28;20015;-60
2021/04/04 01:34:56;;;;;;;8.02;4.47;;;;;;;-0.47;100.00;96587.81;1019580;29;20020;-60
2021/04/04 01:35:29;;;;;;;10.52;5.10;;;;;;;-0.48;100.00;96581.75;1027483;28;20446;-60
2021/04/04 01:36:01;;;;;;;11.88;4.50;;;;;;;-0.47;100.00;96593.03;1019600;29;20561;-60
2021/04/04 01:36:32;;;;;;;9.48;4.53;;;;;;;-0.47;100.00;96586.06;1015657;29;20455;-60
2021/04/04 01:37:05;;;;;;;10.77;4.80;;;;;;;-0.47;100.00;96588.66;1011896;29;20021;-60
2021/04/04 01:37:36;;;;;;;9.52;4.20;;;;;;;-0.46;100.00;96584.28;1020443;29;20012;-60
2021/04/04 01:38:14;;;;;;;8.32;4.28;;;;;;;-0.47;100.00;96582.59;1020785;29;20015;-61
2021/04/04 01:38:45;;;;;;;10.15;4.68;;;;;;;-0.52;100.00;96574.19;1016901;29;20013;-62
2021/04/04 01:39:15;;;;;;;9.98;4.68;;;;;;;-0.49;100.00;96584.44;1020057;29;20043;-61
2021/04/04 01:39:50;;;;;;;9.95;4.35;;;;;;;-0.54;100.00;96581.28;1020270;29;20110;-60
2021/04/04 01:40:22;;;;;;;10.35;4.72;;;;;;;-0.51;100.00;96581.09;1016361;29;20020;-60
2021/04/04 01:41:04;;;;;;;9.20;4.55;;;;;;;-0.55;100.00;96579.63;1024214;29;20016;-61
2021/04/04 01:41:38;;;;;;;10.05;4.75;;;;;;;-0.51;100.00;96578.50;1024285;29;20034;-61
2021/04/04 01:42:09;;;;;;;11.05;4.95;;;;;;;-0.52;100.00;96580.28;1022558;29;20008;-61
2021/04/04 01:42:40;;;;;;;13.23;5.20;;;;;;;-0.51;100.00;96583.72;1018399;29;20028;-60
2021/04/04 01:43:11;;;;;;;9.13;4.55;;;;;;;-0.52;100.00;96580.28;1020245;29;20039;-60
2021/04/04 01:43:44;;;;;;;8.00;4.47;;;;;;;-0.50;100.00;96588.00;1019865;29;20035;-60
2021/04/04 01:44:17;;;;;;;7.57;4.65;;;;;;;-0.53;100.00;96581.19;1020308;29;20027;-60
2021/04/04 01:44:48;;;;;;;11.15;4.80;;;;;;;-0.52;100.00;96588.09;1020273;29;20019;-60
2021/04/04 01:45:20;;;;;;;12.60;5.07;;;;;;;-0.53;100.00;96583.81;1017181;29;20076;-61
2021/04/04 01:45:51;;;;;;;13.82;4.97;;;;;;;-0.53;100.00;96575.97;1016198;29;20027;-61
2021/04/04 01:46:22;;;;;;;11.68;4.88;;;;;;;-0.60;100.00;96574.66;1028284;28;20019;-62
2021/04/04 01:46:54;;;;;;;14.82;5.50;;;;;;;-0.54;100.00;96583.88;1028238;28;20098;-60
2021/04/04 01:47:25;;;;;;;12.50;5.68;;;;;;;-0.54;100.00;96576.91;1016358;29;20020;-62
2021/04/04 01:47:55;;;;;;;10.38;4.88;;;;;;;-0.54;100.00;96581.28;1024134;29;20022;-59
2021/04/04 01:48:26;;;;;;;13.60;5.00;;;;;;;-0.54;100.00;96586.50;1028256;28;20046;-60
2021/04/04 01:48:57;;;;;;;12.43;5.45;;;;;;;-0.54;100.00;96583.88;1020243;29;20031;-61
2021/04/04 01:49:28;;;;;;;12.57;5.22;;;;;;;-0.54;100.00;96583.88;1016443;29;20024;-59
2021/04/04 01:49:59;;;;;;;13.98;5.38;;;;;;;-0.56;100.00;96581.38;1020261;29;20038;-60
2021/04/04 01:50:29;;;;;;;14.55;5.55;;;;;;;-0.56;100.00;96581.38;1024257;28;20023;-62
2021/04/04 01:51:02;;;;;;;11.98;5.20;;;;;;;-0.57;100.00;96582.31;1028202;28;20030;-60
2021/04/04 01:51:32;;;;;;;8.77;5.50;;;;;;;-0.57;100.00;96580.53;1032150;28;20038;-61
2021/04/04 01:52:03;;;;;;;12.52;4.90;;;;;;;-0.59;100.00;96584.19;1024076;28;20039;-60
2021/04/04 01:52:34;;;;;;;9.35;5.35;;;;;;;-0.58;100.00;96585.84;1020146;28;20489;-59
2021/04/04 01:53:05;;;;;;;14.30;5.68;;;;;;;-0.59;100.00;96581.56;1028324;28;20033;-61
2021/04/04 01:53:37;;;;;;;10.43;5.18;;;;;;;-0.59;100.00;96581.56;1024436;28;20460;-60
2021/04/04 01:54:08;;;;;;;19.40;5.80;;;;;;;-0.59;100.00;96576.34;1023805;28;20474;-61
2021/04/04 01:54:40;;;;;;;10.25;4.95;;;;;;;-0.61;100.00;96579.06;1020835;29;20047;-61
2021/04/04 01:55:11;;;;;;;11.18;5.25;;;;;;;-0.61;100.00;96581.66;1020776;29;20027;-60
2021/04/04 01:55:43;;;;;;;12.00;5.15;;;;;;;-0.70;100.00;96560.50;1021378;28;20027;-61
2021/04/04 01:56:13;;;;;;;12.73;6.25;;;;;;;-0.60;100.00;96582.50;1020121;29;20029;-62
2021/04/04 01:56:44;;;;;;;11.55;5.40;;;;;;;-0.61;100.00;96575.59;1020269;29;20023;-61
2021/04/04 01:57:15;;;;;;;11.82;5.93;;;;;;;-0.59;100.00;96576.34;1028148;28;20027;-60
2021/04/04 01:57:46;;;;;;;11.77;5.57;;;;;;;-0.59;100.00;96571.13;1024264;28;20070;-60
2021/04/04 01:58:17;;;;;;;14.32;6.00;;;;;;;-0.61;100.00;96570.38;1020086;29;20020;-60
2021/04/04 01:58:48;;;;;;;12.95;5.38;;;;;;;-0.60;100.00;96577.28;1028298;28;20388;-58
2021/04/04 01:59:19;;;;;;;12.90;5.75;;;;;;;-0.60;100.00;96574.66;1024218;29;20030;-60
2021/04/04 01:59:50;;;;;;;10.10;5.22;;;;;;;-0.61;100.00;96579.06;1024205;29;20023;-60
2021/04/04 02:00:24;;;;;;;14.85;5.80;;;;;;;-0.60;100.00;96578.09;1020200;29;20490;-61
2021/04/04 02:00:55;;;;;;;13.43;5.20;;;;;;;-0.59;100.00;96579.78;1020214;29;20023;-60
2021/04/04 02:01:28;;;;;;;10.55;5.50;;;;;;;-0.60;100.00;96578.09;1024145;29;20489;-60
2021/04/04 02:01:59;;;;;;;13.32;5.72;;;;;;;-0.59;100.00;96577.19;1020249;29;20458;-59
2021/04/04 02:02:30;;;;;;;14.30;5.63;;;;;;;-0.60;100.00;96583.31;1012244;29;20031;-60
2021/04/04 02:03:01;;;;;;;12.60;6.03;;;;;;;-0.61;100.00;96584.28;1024334;29;20390;-60
2021/04/04 02:03:33;;;;;;;10.30;5.55;;;;;;;-0.64;100.00;96581.00;1031981;28;20109;-62
2021/04/04 02:04:06;;;;;;;9.95;5.07;;;;;;;-0.65;100.00;96579.31;1032195;28;20077;-60
2021/04/04 02:04:37;;;;;;;12.68;5.40;;;;;;;-0.67;100.00;96581.19;1028826;28;20023;-60
2021/04/04 02:05:08;;;;;;;13.88;5.43;;;;;;;-0.66;100.00;96580.22;1020928;29;20106;-60
2021/04/04 02:05:39;;;;;;;12.70;5.35;;;;;;;-0.68;100.00;96574.28;1016402;29;20028;-60
2021/04/04 02:06:11;;;;;;;10.25;5.25;;;;;;;-0.67;100.00;96582.00;1012422;29;20404;-60
2021/04/04 02:06:42;;;;;;;13.38;5.75;;;;;;;-0.66;100.00;96583.69;1016363;29;20023;-61
2021/04/04 02:07:15;;;;;;;10.77;5.43;;;;;;;-0.68;100.00;96585.56;1016341;29;20166;-60
2021/04/04 02:07:48;;;;;;;10.82;5.38;;;;;;;-0.68;100.00;96582.09;1020265;29;20027;-60
2021/04/04 02:08:19;;;;;;;12.18;5.25;;;;;;;-0.69;100.00;96583.88;1020145;29;20028;-60
2021/04/04 02:08:50;;;;;;;11.02;5.43;;;;;;;-0.72;100.00;96584.06;1023977;29;20070;-60
2021/04/04 02:09:21;;;;;;;10.43;5.25;;;;;;;-0.75;100.00;96579.00;1016198;29;20171;-62
2021/04/04 02:09:52;;;;;;;12.52;5.55;;;;;;;-0.75;100.00;96581.63;1020234;29;20500;-59
2021/04/04 02:10:25;;;;;;;12.00;5.28;;;;;;;-0.77;100.00;96586.09;1024351;28;20015;-61
2021/04/04 02:10:56;;;;;;;9.50;5.30;;;;;;;-0.74;100.00;96575.50;1032000;28;20014;-60
2021/04/04 02:11:27;;;;;;;13.65;5.47;;;;;;;-0.72;100.00;96578.84;1020220;28;20011;-61
2021/04/04 02:11:58;;;;;;;11.07;5.05;;;;;;;-0.71;100.00;96583.13;1024205;29;20011;-60
2021/04/04 02:12:29;;;;;;;12.50;6.25;;;;;;;-0.72;100.00;96584.06;1024090;29;20099;-59
2021/04/04 02:13:00;;;;;;;13.55;5.57;;;;;;;-0.71;100.00;96584.91;1020086;28;20023;-61
2021/04/04 02:13:31;;;;;;;12.82;5.80;;;;;;;-0.71;100.00;96571.88;1027994;28;20042;-60
2021/04/04 02:14:06;;;;;;;12.65;6.03;;;;;;;-0.69;100.00;96577.84;1020063;29;20500;-60
2021/04/04 02:14:36;;;;;;;11.43;5.45;;;;;;;-0.68;100.00;96582.97;1028168;28;20007;-61
2021/04/04 02:15:09;;;;;;;9.18;5.53;;;;;;;-0.64;100.00;96575.78;1024077;28;20023;-60
2021/04/04 02:15:40;;;;;;;15.43;4.95;;;;;;;-0.64;100.00;96584.44;1020184;28;20106;-60
2021/04/04 02:16:11;;;;;;;14.65;5.32;;;;;;;-0.68;100.00;96569.06;1028129;28;20019;-61
2021/04/04 02:16:46;;;;;;;11.05;4.80;;;;;;;-0.65;100.00;96580.16;1024148;28;20054;-60
2021/04/04 02:17:17;;;;;;;10.90;5.55;;;;;;;-0.65;100.00;96577.53;1024017;28;20114;-61
2021/04/04 02:17:48;;;;;;;11.82;5.25;;;;;;;-0.66;100.00;96577.63;1020284;29;20012;-60
2021/04/04 02:18:18;;;;;;;10.23;5.72;;;;;;;-0.79;100.00;96559.28;1024103;28;20015;-62
2021/04/04 02:18:49;;;;;;;12.68;4.95;;;;;;;-0.67;100.00;96578.56;1032114;28;20077;-60
2021/04/04 02:19:22;;;;;;;15.88;6.38;;;;;;;-0.70;100.00;96570.94;1020174;29;20020;-60
2021/04/04 02:19:53;;;;;;;10.63;4.78;;;;;;;-0.70;100.00;96576.97;1028002;28;20038;-60
2021/04/04 02:20:25;;;;;;;12.95;5.47;;;;;;;-0.76;100.00;96567.75;1028083;28;20019;-61
2021/04/04 02:20:57;;;;;;;13.25;5.78;;;;;;;-0.82;100.00;96554.22;1020214;29;20524;-60
2021/04/04 02:21:28;;;;;;;9.77;5.20;;;;;;;-0.73;100.00;96576.31;1028025;28;20011;-61
2021/04/04 02:21:59;;;;;;;11.18;5.15;;;;;;;-0.73;100.00;96571.97;1023975;29;20048;-60
2021/04/04 02:22:31;;;;;;;9.43;5.03;;;;;;;-0.71;100.00;96570.09;1016134;29;20028;-60
2021/04/04 02:23:04;;;;;;;11.68;5.50;;;;;;;-0.72;100.00;96578.00;1016133;29;20111;-61
2021/04/04 02:23:35;;;;;;;10.07;5.05;;;;;;;-0.72;100.00;96570.19;1016064;29;20016;-60
2021/04/04 02:24:06;;;;;;;13.65;5.50;;;;;;;-0.74;100.00;96575.50;1023983;29;20019;-60
2021/04/04 02:24:37;;;;;;;9.48;4.68;;;;;;;-0.77;100.00;96575.66;1020146;29;20024;-61
2021/04/04 02:25:10;;;;;;;12.50;5.28;;;;;;;-0.77;100.00;96573.91;1023974;29;20166;-61
2021/04/04 02:25:40;;;;;;;10.80;5.15;;;;;;;-0.75;100.00;96573.78;1024107;29;20023;-60
2021/04/04 02:26:11;;;;;;;16.83;5.45;;;;;;;-0.77;100.00;96573.06;1024023;29;20102;-61
2021/04/04 02:26:42;;;;;;;13.27;5.80;;;;;;;-0.75;100.00;96573.78;1020286;29;20493;-61
2021/04/04 02:27:13;;;;;;;11.57;5.85;;;;;;;-0.78;100.00;96569.63;1027918;28;20018;-59
2021/04/04 02:27:44;;;;;;;12.10;4.85;;;;;;;-0.77;100.00;96566.09;1020083;29;20016;-60
2021/04/04 02:28:15;;;;;;;10.95;5.20;;;;;;;-0.78;100.00;96568.78;1028061;28;20023;-60